sensor_id;sensor_type;location;lat;lon;timestamp;P1;durP1;ratioP1;P2;durP2;ratioP2
64252;SDS011;50592;52.958;-7.470;2024-03-29T00:04:55;7.72;;;3.95;;
64252;SDS011;50592;52.958;-7.470;2024-03-29T00:08:07;14.68;;;8.63;;
64252;SDS011;50592;52.958;-7.470;2024-03-29T00:11:04;19.10;;;10.10;;
64252;SDS011;50592;52.958;-7.470;2024-03-29T00:18:00;11.23;;;8.80;;
64252;SDS011;50592;52.958;-7.470;2024-03-29T00:20:29;9.15;;;6.00;;
64252;SDS011;50592;52.958;-7.470;2024-03-29T00:23:07;8.20;;;3.97;;
64252;SDS011;50592;52.958;-7.470;2024-03-29T00:25:59;8.17;;;3.33;;
64252;SDS011;50592;52.958;-7.470;2024-03-29T00:28:26;6.70;;;2.83;;
64252;SDS011;50592;52.958;-7.470;2024-03-29T00:30:51;9.25;;;2.08;;
64252;SDS011;50592;52.958;-7.470;2024-03-29T00:33:17;7.82;;;2.95;;
64252;SDS011;50592;52.958;-7.470;2024-03-29T00:35:43;4.95;;;1.83;;
64252;SDS011;50592;52.958;-7.470;2024-03-29T00:38:09;6.53;;;2.42;;
64252;SDS011;50592;52.958;-7.470;2024-03-29T00:40:41;7.18;;;2.10;;
64252;SDS011;50592;52.958;-7.470;2024-03-29T00:43:12;8.00;;;2.50;;
64252;SDS011;50592;52.958;-7.470;2024-03-29T00:45:43;9.23;;;2.28;;
64252;SDS011;50592;52.958;-7.470;2024-03-29T00:48:09;3.63;;;1.70;;
64252;SDS011;50592;52.958;-7.470;2024-03-29T00:50:40;8.13;;;3.30;;
64252;SDS011;50592;52.958;-7.470;2024-03-29T00:53:06;4.32;;;1.70;;
64252;SDS011;50592;52.958;-7.470;2024-03-29T00:55:36;5.95;;;2.00;;
64252;SDS011;50592;52.958;-7.470;2024-03-29T01:00:57;11.48;;;2.15;;
64252;SDS011;50592;52.958;-7.470;2024-03-29T01:03:23;8.80;;;4.35;;
64252;SDS011;50592;52.958;-7.470;2024-03-29T01:05:55;11.38;;;7.30;;
64252;SDS011;50592;52.958;-7.470;2024-03-29T01:11:43;14.18;;;8.15;;
64252;SDS011;50592;52.958;-7.470;2024-03-29T01:14:10;14.30;;;9.27;;
64252;SDS011;50592;52.958;-7.470;2024-03-29T01:16:44;16.10;;;8.20;;
64252;SDS011;50592;52.958;-7.470;2024-03-29T01:22:13;14.60;;;8.85;;
64252;SDS011;50592;52.958;-7.470;2024-03-29T01:24:40;16.88;;;9.43;;
64252;SDS011;50592;52.958;-7.470;2024-03-29T01:27:14;15.70;;;9.48;;
64252;SDS011;50592;52.958;-7.470;2024-03-29T01:29:50;15.07;;;9.27;;
64252;SDS011;50592;52.958;-7.470;2024-03-29T01:32:46;18.30;;;9.18;;
64252;SDS011;50592;52.958;-7.470;2024-03-29T01:35:22;20.55;;;9.43;;
64252;SDS011;50592;52.958;-7.470;2024-03-29T01:37:51;17.85;;;9.20;;
64252;SDS011;50592;52.958;-7.470;2024-03-29T01:40:27;14.63;;;8.43;;
64252;SDS011;50592;52.958;-7.470;2024-03-29T01:43:19;13.98;;;8.13;;
64252;SDS011;50592;52.958;-7.470;2024-03-29T01:46:00;13.30;;;8.17;;
64252;SDS011;50592;52.958;-7.470;2024-03-29T01:48:49;12.77;;;7.35;;
64252;SDS011;50592;52.958;-7.470;2024-03-29T01:51:21;13.27;;;7.93;;
64252;SDS011;50592;52.958;-7.470;2024-03-29T01:54:12;12.88;;;8.20;;
64252;SDS011;50592;52.958;-7.470;2024-03-29T01:56:48;12.80;;;8.07;;
64252;SDS011;50592;52.958;-7.470;2024-03-29T01:59:37;13.57;;;6.75;;
64252;SDS011;50592;52.958;-7.470;2024-03-29T02:02:29;11.75;;;6.38;;
64252;SDS011;50592;52.958;-7.470;2024-03-29T02:05:07;10.32;;;6.10;;
64252;SDS011;50592;52.958;-7.470;2024-03-29T02:07:41;9.13;;;5.88;;
64252;SDS011;50592;52.958;-7.470;2024-03-29T02:10:19;11.07;;;4.88;;
64252;SDS011;50592;52.958;-7.470;2024-03-29T02:13:04;9.55;;;5.57;;
64252;SDS011;50592;52.958;-7.470;2024-03-29T02:15:36;11.05;;;5.38;;
64252;SDS011;50592;52.958;-7.470;2024-03-29T02:18:05;10.43;;;6.47;;
64252;SDS011;50592;52.958;-7.470;2024-03-29T02:20:40;11.90;;;6.07;;
64252;SDS011;50592;52.958;-7.470;2024-03-29T02:23:10;12.38;;;5.93;;
64252;SDS011;50592;52.958;-7.470;2024-03-29T02:25:42;13.80;;;6.15;;
64252;SDS011;50592;52.958;-7.470;2024-03-29T02:28:18;13.27;;;6.10;;
64252;SDS011;50592;52.958;-7.470;2024-03-29T02:31:08;13.73;;;6.90;;
64252;SDS011;50592;52.958;-7.470;2024-03-29T02:33:38;12.20;;;5.90;;
64252;SDS011;50592;52.958;-7.470;2024-03-29T02:36:06;15.75;;;7.15;;
64252;SDS011;50592;52.958;-7.470;2024-03-29T02:38:43;12.85;;;7.22;;
64252;SDS011;50592;52.958;-7.470;2024-03-29T02:51:06;10.30;;;5.78;;
64252;SDS011;50592;52.958;-7.470;2024-03-29T02:53:35;10.52;;;5.35;;
64252;SDS011;50592;52.958;-7.470;2024-03-29T02:56:15;15.15;;;5.32;;
64252;SDS011;50592;52.958;-7.470;2024-03-29T02:58:53;8.43;;;5.18;;
64252;SDS011;50592;52.958;-7.470;2024-03-29T03:01:24;13.18;;;5.90;;
64252;SDS011;50592;52.958;-7.470;2024-03-29T03:04:02;13.60;;;5.90;;
64252;SDS011;50592;52.958;-7.470;2024-03-29T03:06:34;11.50;;;5.75;;
64252;SDS011;50592;52.958;-7.470;2024-03-29T03:09:00;12.13;;;5.95;;
64252;SDS011;50592;52.958;-7.470;2024-03-29T03:12:02;13.00;;;5.00;;
64252;SDS011;50592;52.958;-7.470;2024-03-29T03:14:47;14.93;;;5.10;;
64252;SDS011;50592;52.958;-7.470;2024-03-29T03:17:22;9.93;;;4.68;;
64252;SDS011;50592;52.958;-7.470;2024-03-29T03:19:59;9.65;;;4.30;;
64252;SDS011;50592;52.958;-7.470;2024-03-29T03:22:39;11.35;;;4.80;;
64252;SDS011;50592;52.958;-7.470;2024-03-29T03:25:10;7.88;;;4.22;;
64252;SDS011;50592;52.958;-7.470;2024-03-29T03:27:47;11.30;;;4.00;;
64252;SDS011;50592;52.958;-7.470;2024-03-29T03:30:15;8.88;;;3.08;;
64252;SDS011;50592;52.958;-7.470;2024-03-29T03:32:45;11.05;;;2.58;;
64252;SDS011;50592;52.958;-7.470;2024-03-29T03:35:25;6.45;;;2.20;;
64252;SDS011;50592;52.958;-7.470;2024-03-29T03:37:55;6.60;;;2.15;;
64252;SDS011;50592;52.958;-7.470;2024-03-29T03:40:25;10.07;;;2.17;;
64252;SDS011;50592;52.958;-7.470;2024-03-29T03:42:54;11.45;;;2.90;;
64252;SDS011;50592;52.958;-7.470;2024-03-29T03:45:25;10.27;;;3.42;;
64252;SDS011;50592;52.958;-7.470;2024-03-29T03:47:57;7.28;;;2.30;;
64252;SDS011;50592;52.958;-7.470;2024-03-29T03:50:26;10.73;;;2.20;;
64252;SDS011;50592;52.958;-7.470;2024-03-29T03:52:54;5.43;;;1.60;;
64252;SDS011;50592;52.958;-7.470;2024-03-29T03:55:20;6.28;;;1.10;;
64252;SDS011;50592;52.958;-7.470;2024-03-29T03:57:50;12.32;;;1.13;;
64252;SDS011;50592;52.958;-7.470;2024-03-29T04:00:20;6.97;;;0.70;;
64252;SDS011;50592;52.958;-7.470;2024-03-29T04:02:47;3.83;;;0.52;;
64252;SDS011;50592;52.958;-7.470;2024-03-29T04:05:17;7.28;;;0.65;;
64252;SDS011;50592;52.958;-7.470;2024-03-29T04:07:44;4.30;;;0.85;;
64252;SDS011;50592;52.958;-7.470;2024-03-29T04:10:10;6.65;;;0.85;;
64252;SDS011;50592;52.958;-7.470;2024-03-29T04:12:36;4.68;;;0.65;;
64252;SDS011;50592;52.958;-7.470;2024-03-29T04:15:03;5.28;;;0.75;;
64252;SDS011;50592;52.958;-7.470;2024-03-29T04:17:32;5.15;;;0.63;;
64252;SDS011;50592;52.958;-7.470;2024-03-29T04:20:01;1.45;;;0.45;;
64252;SDS011;50592;52.958;-7.470;2024-03-29T04:22:30;3.53;;;0.47;;
64252;SDS011;50592;52.958;-7.470;2024-03-29T04:24:59;2.40;;;0.35;;
64252;SDS011;50592;52.958;-7.470;2024-03-29T04:27:25;3.58;;;0.60;;
64252;SDS011;50592;52.958;-7.470;2024-03-29T04:29:52;2.38;;;0.30;;
64252;SDS011;50592;52.958;-7.470;2024-03-29T04:32:21;6.45;;;0.73;;
64252;SDS011;50592;52.958;-7.470;2024-03-29T04:34:47;4.95;;;0.40;;
64252;SDS011;50592;52.958;-7.470;2024-03-29T04:37:20;3.25;;;0.50;;
64252;SDS011;50592;52.958;-7.470;2024-03-29T04:39:46;3.38;;;0.60;;
64252;SDS011;50592;52.958;-7.470;2024-03-29T04:42:18;2.00;;;0.40;;
64252;SDS011;50592;52.958;-7.470;2024-03-29T04:44:46;6.88;;;0.50;;
64252;SDS011;50592;52.958;-7.470;2024-03-29T04:47:12;4.78;;;0.32;;
64252;SDS011;50592;52.958;-7.470;2024-03-29T04:49:38;3.60;;;0.70;;
64252;SDS011;50592;52.958;-7.470;2024-03-29T04:52:05;6.07;;;0.40;;
64252;SDS011;50592;52.958;-7.470;2024-03-29T04:54:34;1.88;;;0.30;;
64252;SDS011;50592;52.958;-7.470;2024-03-29T04:57:00;2.88;;;0.20;;
64252;SDS011;50592;52.958;-7.470;2024-03-29T04:59:27;4.05;;;0.38;;
64252;SDS011;50592;52.958;-7.470;2024-03-29T05:01:54;3.38;;;0.60;;
64252;SDS011;50592;52.958;-7.470;2024-03-29T05:04:22;1.95;;;0.40;;
64252;SDS011;50592;52.958;-7.470;2024-03-29T05:06:52;2.28;;;0.30;;
64252;SDS011;50592;52.958;-7.470;2024-03-29T05:09:21;4.57;;;0.30;;
64252;SDS011;50592;52.958;-7.470;2024-03-29T05:11:49;2.35;;;0.40;;
64252;SDS011;50592;52.958;-7.470;2024-03-29T05:14:15;7.97;;;0.85;;
64252;SDS011;50592;52.958;-7.470;2024-03-29T05:16:45;3.17;;;0.70;;
64252;SDS011;50592;52.958;-7.470;2024-03-29T05:19:11;8.68;;;0.60;;
64252;SDS011;50592;52.958;-7.470;2024-03-29T05:21:38;3.83;;;0.55;;
64252;SDS011;50592;52.958;-7.470;2024-03-29T05:24:04;0.93;;;0.40;;
64252;SDS011;50592;52.958;-7.470;2024-03-29T05:26:31;5.18;;;0.80;;
64252;SDS011;50592;52.958;-7.470;2024-03-29T05:28:57;6.18;;;0.43;;
64252;SDS011;50592;52.958;-7.470;2024-03-29T05:31:23;2.75;;;0.60;;
64252;SDS011;50592;52.958;-7.470;2024-03-29T05:33:50;7.80;;;0.73;;
64252;SDS011;50592;52.958;-7.470;2024-03-29T05:36:16;1.65;;;0.45;;
64252;SDS011;50592;52.958;-7.470;2024-03-29T05:38:43;5.93;;;0.45;;
64252;SDS011;50592;52.958;-7.470;2024-03-29T05:41:09;7.93;;;0.50;;
64252;SDS011;50592;52.958;-7.470;2024-03-29T05:43:35;2.20;;;0.47;;
64252;SDS011;50592;52.958;-7.470;2024-03-29T05:46:01;5.00;;;0.60;;
64252;SDS011;50592;52.958;-7.470;2024-03-29T05:48:28;3.38;;;0.60;;
64252;SDS011;50592;52.958;-7.470;2024-03-29T05:50:54;2.15;;;0.40;;
64252;SDS011;50592;52.958;-7.470;2024-03-29T05:53:20;2.63;;;0.20;;
64252;SDS011;50592;52.958;-7.470;2024-03-29T05:55:46;5.82;;;0.40;;
64252;SDS011;50592;52.958;-7.470;2024-03-29T05:59:01;2.67;;;0.70;;
64252;SDS011;50592;52.958;-7.470;2024-03-29T06:01:28;1.33;;;0.40;;
64252;SDS011;50592;52.958;-7.470;2024-03-29T06:03:55;1.98;;;0.43;;
64252;SDS011;50592;52.958;-7.470;2024-03-29T06:06:21;2.05;;;0.40;;
64252;SDS011;50592;52.958;-7.470;2024-03-29T06:08:49;4.65;;;0.40;;
64252;SDS011;50592;52.958;-7.470;2024-03-29T06:11:16;6.57;;;0.85;;
64252;SDS011;50592;52.958;-7.470;2024-03-29T06:13:42;2.97;;;0.30;;
64252;SDS011;50592;52.958;-7.470;2024-03-29T06:16:27;3.03;;;0.47;;
64252;SDS011;50592;52.958;-7.470;2024-03-29T06:19:12;4.63;;;0.60;;
64252;SDS011;50592;52.958;-7.470;2024-03-29T06:21:38;5.00;;;0.50;;
64252;SDS011;50592;52.958;-7.470;2024-03-29T06:24:13;2.17;;;0.60;;
64252;SDS011;50592;52.958;-7.470;2024-03-29T06:26:40;1.73;;;0.57;;
64252;SDS011;50592;52.958;-7.470;2024-03-29T06:29:07;1.15;;;0.35;;
64252;SDS011;50592;52.958;-7.470;2024-03-29T06:31:35;3.35;;;0.47;;
64252;SDS011;50592;52.958;-7.470;2024-03-29T06:34:01;6.55;;;0.40;;
64252;SDS011;50592;52.958;-7.470;2024-03-29T06:36:30;4.70;;;0.50;;
64252;SDS011;50592;52.958;-7.470;2024-03-29T06:38:56;0.55;;;0.30;;
64252;SDS011;50592;52.958;-7.470;2024-03-29T06:41:22;4.57;;;0.40;;
64252;SDS011;50592;52.958;-7.470;2024-03-29T06:43:48;4.28;;;0.40;;
64252;SDS011;50592;52.958;-7.470;2024-03-29T06:46:14;6.35;;;0.70;;
64252;SDS011;50592;52.958;-7.470;2024-03-29T06:48:40;3.58;;;0.70;;
64252;SDS011;50592;52.958;-7.470;2024-03-29T06:51:06;5.28;;;0.50;;
64252;SDS011;50592;52.958;-7.470;2024-03-29T06:53:32;2.85;;;0.38;;
64252;SDS011;50592;52.958;-7.470;2024-03-29T06:56:00;5.07;;;0.47;;
64252;SDS011;50592;52.958;-7.470;2024-03-29T06:58:26;7.88;;;0.77;;
64252;SDS011;50592;52.958;-7.470;2024-03-29T07:00:52;3.40;;;1.15;;
64252;SDS011;50592;52.958;-7.470;2024-03-29T07:03:18;4.13;;;0.68;;
64252;SDS011;50592;52.958;-7.470;2024-03-29T07:05:47;2.10;;;0.50;;
64252;SDS011;50592;52.958;-7.470;2024-03-29T07:08:13;6.03;;;0.55;;
64252;SDS011;50592;52.958;-7.470;2024-03-29T07:10:39;8.35;;;0.70;;
64252;SDS011;50592;52.958;-7.470;2024-03-29T07:13:06;8.68;;;0.80;;
64252;SDS011;50592;52.958;-7.470;2024-03-29T07:15:32;4.93;;;1.25;;
64252;SDS011;50592;52.958;-7.470;2024-03-29T07:17:58;4.90;;;0.50;;
64252;SDS011;50592;52.958;-7.470;2024-03-29T07:20:25;4.18;;;0.55;;
64252;SDS011;50592;52.958;-7.470;2024-03-29T07:22:52;6.22;;;0.80;;
64252;SDS011;50592;52.958;-7.470;2024-03-29T07:25:18;2.92;;;0.70;;
64252;SDS011;50592;52.958;-7.470;2024-03-29T07:27:44;5.43;;;0.60;;
64252;SDS011;50592;52.958;-7.470;2024-03-29T07:30:10;8.77;;;0.93;;
64252;SDS011;50592;52.958;-7.470;2024-03-29T07:32:36;8.25;;;0.50;;
64252;SDS011;50592;52.958;-7.470;2024-03-29T07:35:03;10.73;;;0.80;;
64252;SDS011;50592;52.958;-7.470;2024-03-29T07:37:29;8.35;;;0.52;;
64252;SDS011;50592;52.958;-7.470;2024-03-29T07:39:55;6.82;;;0.80;;
64252;SDS011;50592;52.958;-7.470;2024-03-29T07:42:21;6.03;;;0.70;;
64252;SDS011;50592;52.958;-7.470;2024-03-29T07:44:47;3.75;;;0.32;;
64252;SDS011;50592;52.958;-7.470;2024-03-29T07:47:13;7.22;;;0.57;;
64252;SDS011;50592;52.958;-7.470;2024-03-29T07:49:40;10.63;;;1.77;;
64252;SDS011;50592;52.958;-7.470;2024-03-29T07:52:06;7.03;;;1.00;;
64252;SDS011;50592;52.958;-7.470;2024-03-29T07:54:36;2.53;;;0.40;;
64252;SDS011;50592;52.958;-7.470;2024-03-29T07:57:08;9.38;;;0.75;;
64252;SDS011;50592;52.958;-7.470;2024-03-29T07:59:34;4.50;;;0.60;;
64252;SDS011;50592;52.958;-7.470;2024-03-29T08:02:02;3.50;;;0.57;;
64252;SDS011;50592;52.958;-7.470;2024-03-29T08:04:28;7.60;;;1.15;;
64252;SDS011;50592;52.958;-7.470;2024-03-29T08:06:54;6.32;;;0.55;;
64252;SDS011;50592;52.958;-7.470;2024-03-29T08:09:21;8.55;;;0.95;;
64252;SDS011;50592;52.958;-7.470;2024-03-29T08:11:47;6.72;;;0.57;;
64252;SDS011;50592;52.958;-7.470;2024-03-29T08:14:16;6.40;;;0.80;;
64252;SDS011;50592;52.958;-7.470;2024-03-29T08:20:02;9.88;;;0.98;;
64252;SDS011;50592;52.958;-7.470;2024-03-29T08:22:35;4.93;;;0.82;;
64252;SDS011;50592;52.958;-7.470;2024-03-29T08:25:01;4.90;;;0.65;;
64252;SDS011;50592;52.958;-7.470;2024-03-29T08:27:27;4.78;;;0.52;;
64252;SDS011;50592;52.958;-7.470;2024-03-29T08:29:53;10.35;;;0.90;;
64252;SDS011;50592;52.958;-7.470;2024-03-29T08:32:31;5.22;;;0.70;;
64252;SDS011;50592;52.958;-7.470;2024-03-29T08:35:06;6.97;;;0.75;;
64252;SDS011;50592;52.958;-7.470;2024-03-29T08:37:32;3.20;;;0.60;;
64252;SDS011;50592;52.958;-7.470;2024-03-29T08:39:58;4.25;;;0.77;;
64252;SDS011;50592;52.958;-7.470;2024-03-29T08:42:24;4.53;;;0.73;;
64252;SDS011;50592;52.958;-7.470;2024-03-29T08:44:55;7.45;;;0.70;;
64252;SDS011;50592;52.958;-7.470;2024-03-29T08:47:21;3.30;;;0.60;;
64252;SDS011;50592;52.958;-7.470;2024-03-29T08:49:46;5.47;;;0.57;;
64252;SDS011;50592;52.958;-7.470;2024-03-29T08:52:12;9.30;;;2.15;;
64252;SDS011;50592;52.958;-7.470;2024-03-29T08:54:48;8.63;;;0.80;;
64252;SDS011;50592;52.958;-7.470;2024-03-29T08:57:16;7.40;;;1.05;;
64252;SDS011;50592;52.958;-7.470;2024-03-29T08:59:42;7.10;;;1.00;;
64252;SDS011;50592;52.958;-7.470;2024-03-29T09:02:11;7.13;;;0.90;;
64252;SDS011;50592;52.958;-7.470;2024-03-29T09:04:45;9.93;;;1.13;;
64252;SDS011;50592;52.958;-7.470;2024-03-29T09:07:18;7.50;;;1.13;;
64252;SDS011;50592;52.958;-7.470;2024-03-29T09:09:52;12.32;;;1.05;;
64252;SDS011;50592;52.958;-7.470;2024-03-29T09:15:55;8.15;;;1.08;;
64252;SDS011;50592;52.958;-7.470;2024-03-29T09:18:27;3.45;;;0.63;;
64252;SDS011;50592;52.958;-7.470;2024-03-29T09:20:57;6.80;;;0.95;;
64252;SDS011;50592;52.958;-7.470;2024-03-29T09:23:34;7.85;;;0.80;;
64252;SDS011;50592;52.958;-7.470;2024-03-29T09:26:10;6.65;;;0.43;;
64252;SDS011;50592;52.958;-7.470;2024-03-29T09:28:39;4.15;;;0.55;;
64252;SDS011;50592;52.958;-7.470;2024-03-29T09:31:10;9.43;;;1.50;;
64252;SDS011;50592;52.958;-7.470;2024-03-29T09:33:38;7.13;;;1.20;;
64252;SDS011;50592;52.958;-7.470;2024-03-29T09:36:04;6.95;;;0.70;;
64252;SDS011;50592;52.958;-7.470;2024-03-29T09:38:30;7.05;;;0.90;;
64252;SDS011;50592;52.958;-7.470;2024-03-29T09:41:09;7.15;;;0.88;;
64252;SDS011;50592;52.958;-7.470;2024-03-29T09:43:39;6.18;;;0.98;;
64252;SDS011;50592;52.958;-7.470;2024-03-29T09:46:10;4.00;;;0.65;;
64252;SDS011;50592;52.958;-7.470;2024-03-29T09:48:39;7.32;;;0.80;;
64252;SDS011;50592;52.958;-7.470;2024-03-29T09:51:07;9.20;;;0.60;;
64252;SDS011;50592;52.958;-7.470;2024-03-29T09:53:37;3.17;;;0.90;;
64252;SDS011;50592;52.958;-7.470;2024-03-29T09:56:03;5.22;;;0.90;;
64252;SDS011;50592;52.958;-7.470;2024-03-29T09:58:33;5.28;;;0.57;;
64252;SDS011;50592;52.958;-7.470;2024-03-29T10:01:03;9.45;;;1.10;;
64252;SDS011;50592;52.958;-7.470;2024-03-29T10:03:31;6.95;;;0.73;;
64252;SDS011;50592;52.958;-7.470;2024-03-29T10:06:06;6.60;;;1.42;;
64252;SDS011;50592;52.958;-7.470;2024-03-29T10:08:40;2.45;;;0.40;;
64252;SDS011;50592;52.958;-7.470;2024-03-29T10:11:09;10.18;;;1.42;;
64252;SDS011;50592;52.958;-7.470;2024-03-29T10:13:36;10.57;;;1.00;;
64252;SDS011;50592;52.958;-7.470;2024-03-29T10:16:09;4.45;;;0.60;;
64252;SDS011;50592;52.958;-7.470;2024-03-29T10:18:49;5.65;;;0.77;;
64252;SDS011;50592;52.958;-7.470;2024-03-29T10:21:24;5.22;;;0.75;;
64252;SDS011;50592;52.958;-7.470;2024-03-29T10:27:08;2.95;;;0.65;;
64252;SDS011;50592;52.958;-7.470;2024-03-29T10:29:39;4.70;;;0.65;;
64252;SDS011;50592;52.958;-7.470;2024-03-29T10:36:43;6.30;;;0.68;;
64252;SDS011;50592;52.958;-7.470;2024-03-29T10:40:17;3.40;;;0.82;;
64252;SDS011;50592;52.958;-7.470;2024-03-29T10:43:13;4.40;;;0.63;;
64252;SDS011;50592;52.958;-7.470;2024-03-29T10:45:51;13.80;;;1.20;;
64252;SDS011;50592;52.958;-7.470;2024-03-29T10:48:20;14.93;;;2.30;;
64252;SDS011;50592;52.958;-7.470;2024-03-29T10:50:53;10.88;;;1.10;;
64252;SDS011;50592;52.958;-7.470;2024-03-29T10:53:29;9.73;;;1.27;;
64252;SDS011;50592;52.958;-7.470;2024-03-29T10:56:02;5.95;;;0.90;;
64252;SDS011;50592;52.958;-7.470;2024-03-29T10:58:54;4.63;;;0.60;;
64252;SDS011;50592;52.958;-7.470;2024-03-29T11:01:43;7.47;;;0.70;;
64252;SDS011;50592;52.958;-7.470;2024-03-29T11:04:33;5.93;;;0.63;;
64252;SDS011;50592;52.958;-7.470;2024-03-29T11:16:33;3.33;;;0.40;;
64252;SDS011;50592;52.958;-7.470;2024-03-29T11:19:00;9.38;;;1.05;;
64252;SDS011;50592;52.958;-7.470;2024-03-29T11:21:52;4.57;;;0.60;;
64252;SDS011;50592;52.958;-7.470;2024-03-29T11:52:28;9.80;;;0.82;;
64252;SDS011;50592;52.958;-7.470;2024-03-29T11:54:54;11.02;;;1.20;;
64252;SDS011;50592;52.958;-7.470;2024-03-29T11:57:26;13.20;;;1.27;;
64252;SDS011;50592;52.958;-7.470;2024-03-29T12:00:29;8.25;;;1.02;;
64252;SDS011;50592;52.958;-7.470;2024-03-29T12:03:02;7.30;;;1.23;;
64252;SDS011;50592;52.958;-7.470;2024-03-29T12:05:29;10.18;;;1.25;;
64252;SDS011;50592;52.958;-7.470;2024-03-29T12:08:06;10.00;;;1.42;;
64252;SDS011;50592;52.958;-7.470;2024-03-29T12:10:39;4.13;;;0.60;;
64252;SDS011;50592;52.958;-7.470;2024-03-29T12:13:33;2.25;;;0.28;;
64252;SDS011;50592;52.958;-7.470;2024-03-29T12:16:18;0.52;;;0.25;;
64252;SDS011;50592;52.958;-7.470;2024-03-29T12:18:49;4.18;;;0.80;;
64252;SDS011;50592;52.958;-7.470;2024-03-29T12:21:15;4.25;;;0.82;;
64252;SDS011;50592;52.958;-7.470;2024-03-29T12:23:46;1.75;;;0.30;;
64252;SDS011;50592;52.958;-7.470;2024-03-29T12:26:14;2.92;;;0.63;;
64252;SDS011;50592;52.958;-7.470;2024-03-29T12:28:42;4.05;;;0.63;;
64252;SDS011;50592;52.958;-7.470;2024-03-29T12:34:41;3.95;;;1.00;;
64252;SDS011;50592;52.958;-7.470;2024-03-29T12:37:08;4.22;;;0.32;;
64252;SDS011;50592;52.958;-7.470;2024-03-29T12:39:36;4.82;;;0.63;;
64252;SDS011;50592;52.958;-7.470;2024-03-29T12:42:04;6.10;;;0.60;;
64252;SDS011;50592;52.958;-7.470;2024-03-29T12:44:30;7.80;;;0.68;;
64252;SDS011;50592;52.958;-7.470;2024-03-29T12:46:58;2.97;;;0.90;;
64252;SDS011;50592;52.958;-7.470;2024-03-29T12:49:30;5.80;;;0.70;;
64252;SDS011;50592;52.958;-7.470;2024-03-29T12:51:58;3.33;;;0.55;;
64252;SDS011;50592;52.958;-7.470;2024-03-29T12:54:25;2.75;;;0.38;;
64252;SDS011;50592;52.958;-7.470;2024-03-29T12:56:54;3.33;;;0.60;;
64252;SDS011;50592;52.958;-7.470;2024-03-29T12:59:36;6.82;;;0.70;;
64252;SDS011;50592;52.958;-7.470;2024-03-29T13:02:21;7.60;;;0.88;;
64252;SDS011;50592;52.958;-7.470;2024-03-29T13:05:09;10.00;;;0.88;;
64252;SDS011;50592;52.958;-7.470;2024-03-29T13:07:51;6.53;;;1.23;;
64252;SDS011;50592;52.958;-7.470;2024-03-29T13:13:14;8.80;;;0.77;;
64252;SDS011;50592;52.958;-7.470;2024-03-29T13:15:46;3.45;;;0.50;;
64252;SDS011;50592;52.958;-7.470;2024-03-29T13:21:45;6.40;;;0.57;;
64252;SDS011;50592;52.958;-7.470;2024-03-29T13:25:03;4.78;;;0.73;;
64252;SDS011;50592;52.958;-7.470;2024-03-29T13:28:44;6.35;;;0.70;;
64252;SDS011;50592;52.958;-7.470;2024-03-29T13:49:28;6.97;;;1.05;;
64252;SDS011;50592;52.958;-7.470;2024-03-29T13:53:09;12.70;;;5.60;;
64252;SDS011;50592;52.958;-7.470;2024-03-29T13:56:24;5.63;;;0.93;;
64252;SDS011;50592;52.958;-7.470;2024-03-29T14:09:11;5.10;;;0.60;;
64252;SDS011;50592;52.958;-7.470;2024-03-29T14:12:32;9.20;;;1.00;;
64252;SDS011;50592;52.958;-7.470;2024-03-29T14:15:52;3.80;;;0.50;;
64252;SDS011;50592;52.958;-7.470;2024-03-29T14:18:31;6.80;;;0.80;;
64252;SDS011;50592;52.958;-7.470;2024-03-29T14:21:18;20.60;;;7.68;;
64252;SDS011;50592;52.958;-7.470;2024-03-29T14:23:44;10.13;;;2.35;;
64252;SDS011;50592;52.958;-7.470;2024-03-29T14:26:10;16.92;;;7.57;;
64252;SDS011;50592;52.958;-7.470;2024-03-29T14:28:35;5.70;;;1.10;;
64252;SDS011;50592;52.958;-7.470;2024-03-29T14:31:01;5.00;;;1.52;;
64252;SDS011;50592;52.958;-7.470;2024-03-29T14:33:27;5.70;;;0.85;;
64252;SDS011;50592;52.958;-7.470;2024-03-29T14:35:56;14.43;;;6.68;;
64252;SDS011;50592;52.958;-7.470;2024-03-29T14:42:39;4.40;;;1.70;;
64252;SDS011;50592;52.958;-7.470;2024-03-29T14:45:16;3.13;;;0.50;;
64252;SDS011;50592;52.958;-7.470;2024-03-29T14:47:55;3.10;;;1.13;;
64252;SDS011;50592;52.958;-7.470;2024-03-29T14:54:07;3.38;;;0.65;;
64252;SDS011;50592;52.958;-7.470;2024-03-29T14:56:33;2.40;;;0.55;;
64252;SDS011;50592;52.958;-7.470;2024-03-29T14:59:01;11.50;;;6.43;;
64252;SDS011;50592;52.958;-7.470;2024-03-29T15:01:48;7.82;;;5.38;;
64252;SDS011;50592;52.958;-7.470;2024-03-29T15:04:30;3.45;;;0.80;;
64252;SDS011;50592;52.958;-7.470;2024-03-29T15:07:33;7.38;;;2.22;;
64252;SDS011;50592;52.958;-7.470;2024-03-29T15:11:11;10.27;;;7.30;;
64252;SDS011;50592;52.958;-7.470;2024-03-29T15:13:55;6.40;;;3.00;;
64252;SDS011;50592;52.958;-7.470;2024-03-29T15:16:30;6.88;;;2.85;;
64252;SDS011;50592;52.958;-7.470;2024-03-29T15:19:57;0.98;;;0.60;;
64252;SDS011;50592;52.958;-7.470;2024-03-29T15:26:07;1.77;;;0.40;;
64252;SDS011;50592;52.958;-7.470;2024-03-29T15:29:20;0.80;;;0.60;;
64252;SDS011;50592;52.958;-7.470;2024-03-29T15:38:58;0.70;;;0.70;;
64252;SDS011;50592;52.958;-7.470;2024-03-29T15:41:48;3.65;;;1.17;;
64252;SDS011;50592;52.958;-7.470;2024-03-29T16:08:10;1.55;;;0.63;;
64252;SDS011;50592;52.958;-7.470;2024-03-29T16:27:32;4.88;;;0.17;;
64252;SDS011;50592;52.958;-7.470;2024-03-29T16:30:30;1.77;;;0.90;;
64252;SDS011;50592;52.958;-7.470;2024-03-29T16:33:14;2.00;;;0.40;;
64252;SDS011;50592;52.958;-7.470;2024-03-29T16:35:40;12.48;;;10.48;;
64252;SDS011;50592;52.958;-7.470;2024-03-29T16:41:00;4.57;;;1.75;;
64252;SDS011;50592;52.958;-7.470;2024-03-29T16:43:31;1.90;;;0.50;;
64252;SDS011;50592;52.958;-7.470;2024-03-29T16:49:49;2.10;;;0.60;;
64252;SDS011;50592;52.958;-7.470;2024-03-29T16:52:58;2.75;;;0.40;;
64252;SDS011;50592;52.958;-7.470;2024-03-29T16:55:24;4.70;;;1.88;;
64252;SDS011;50592;52.958;-7.470;2024-03-29T16:58:00;1.88;;;0.85;;
64252;SDS011;50592;52.958;-7.470;2024-03-29T17:04:42;0.25;;;0.17;;
64252;SDS011;50592;52.958;-7.470;2024-03-29T17:09:05;0.55;;;0.17;;
64252;SDS011;50592;52.958;-7.470;2024-03-29T17:11:58;3.95;;;0.30;;
64252;SDS011;50592;52.958;-7.470;2024-03-29T17:14:33;1.15;;;0.30;;
64252;SDS011;50592;52.958;-7.470;2024-03-29T17:17:19;0.77;;;0.17;;
64252;SDS011;50592;52.958;-7.470;2024-03-29T17:20:50;1.02;;;0.20;;
64252;SDS011;50592;52.958;-7.470;2024-03-29T17:23:46;2.85;;;0.20;;
64252;SDS011;50592;52.958;-7.470;2024-03-29T17:34:36;1.65;;;0.47;;
64252;SDS011;50592;52.958;-7.470;2024-03-29T17:40:01;2.00;;;0.30;;
64252;SDS011;50592;52.958;-7.470;2024-03-29T17:43:44;1.70;;;0.60;;
64252;SDS011;50592;52.958;-7.470;2024-03-29T17:46:15;0.77;;;0.40;;
64252;SDS011;50592;52.958;-7.470;2024-03-29T17:49:31;1.93;;;0.30;;
64252;SDS011;50592;52.958;-7.470;2024-03-29T17:56:03;0.70;;;0.50;;
64252;SDS011;50592;52.958;-7.470;2024-03-29T17:59:48;1.45;;;0.60;;
64252;SDS011;50592;52.958;-7.470;2024-03-29T18:07:19;2.15;;;0.75;;
64252;SDS011;50592;52.958;-7.470;2024-03-29T18:14:28;30.40;;;19.10;;
64252;SDS011;50592;52.958;-7.470;2024-03-29T18:20:06;32.45;;;21.08;;
64252;SDS011;50592;52.958;-7.470;2024-03-29T18:26:21;18.50;;;10.45;;
64252;SDS011;50592;52.958;-7.470;2024-03-29T18:28:53;17.23;;;10.18;;
64252;SDS011;50592;52.958;-7.470;2024-03-29T18:31:28;8.73;;;6.07;;
64252;SDS011;50592;52.958;-7.470;2024-03-29T18:33:55;29.73;;;21.17;;
64252;SDS011;50592;52.958;-7.470;2024-03-29T18:36:30;57.05;;;40.22;;
64252;SDS011;50592;52.958;-7.470;2024-03-29T18:38:56;16.52;;;13.30;;
64252;SDS011;50592;52.958;-7.470;2024-03-29T18:41:22;2.78;;;1.45;;
64252;SDS011;50592;52.958;-7.470;2024-03-29T18:43:54;0.75;;;0.40;;
64252;SDS011;50592;52.958;-7.470;2024-03-29T18:46:20;1.60;;;0.43;;
64252;SDS011;50592;52.958;-7.470;2024-03-29T18:48:45;2.15;;;0.40;;
64252;SDS011;50592;52.958;-7.470;2024-03-29T18:51:11;1.20;;;0.30;;
64252;SDS011;50592;52.958;-7.470;2024-03-29T18:53:37;0.73;;;0.20;;